Time;durP1;ratioP1;P1;durP2;ratioP2;P2;SDS_P1;SDS_P2;PMS_P1;PMS_P2;Temp;Humidity;BMP_temperature;BMP_pressure;BME280_temperature;BME280_humidity;BME280_pressure;Samples;Min_cycle;Max_cycle;Signal;HPM_P1;HPM_P2
2023/08/19 00:01:31;;;;;;;8.25;6.88;;;22.10;89.00;;;;;;5073648;28;20136;-31
2023/08/19 00:03:57;;;;;;;9.30;6.65;;;22.30;80.50;;;;;;5073660;28;20132;-31
2023/08/19 00:06:35;;;;;;;8.32;7.45;;;22.80;76.30;;;;;;5073468;28;20127;-32
2023/08/19 00:09:04;;;;;;;8.65;7.38;;;22.60;73.20;;;;;;5073523;28;20134;-32
2023/08/19 00:11:31;;;;;;;8.18;7.03;;;22.60;82.30;;;;;;5073643;28;20094;-31
2023/08/19 00:13:57;;;;;;;8.45;7.30;;;22.50;89.10;;;;;;5073422;28;20127;-31
2023/08/19 00:16:24;;;;;;;7.75;6.82;;;22.40;90.00;;;;;;5073407;28;20077;-30
2023/08/19 00:18:52;;;;;;;8.40;6.88;;;22.20;80.30;;;;;;5073657;28;20132;-32
2023/08/19 00:21:19;;;;;;;8.10;7.07;;;;;;;;;;5072832;28;20135;-34
2023/08/19 00:23:46;;;;;;;7.78;6.97;;;21.30;89.00;;;;;;5071795;28;20139;-31
2023/08/19 00:26:13;;;;;;;8.25;7.45;;;;;;;;;;5073153;28;20128;-32
2023/08/19 00:28:40;;;;;;;8.00;7.13;;;21.90;89.20;;;;;;5073041;28;20084;-30
2023/08/19 00:31:07;;;;;;;8.02;6.70;;;21.30;88.60;;;;;;5073321;28;20123;-31
2023/08/19 00:33:34;;;;;;;8.48;7.00;;;23.10;89.90;;;;;;5072844;28;20497;-31
2023/08/19 00:36:02;;;;;;;7.28;6.57;;;21.90;89.70;;;;;;5072636;28;20136;-32
2023/08/19 00:38:29;;;;;;;7.30;6.53;;;22.30;79.90;;;;;;5069169;28;20127;-32
2023/08/19 00:40:56;;;;;;;7.63;6.82;;;22.90;89.60;;;;;;5052278;28;20139;-31
2023/08/19 00:43:23;;;;;;;7.38;6.43;;;22.40;89.40;;;;;;5052737;28;20546;-31
2023/08/19 00:45:50;;;;;;;8.07;6.97;;;23.20;75.20;;;;;;5069793;28;20127;-33
2023/08/19 00:48:18;;;;;;;7.40;6.50;;;21.80;88.80;;;;;;5072869;28;20123;-30
2023/08/19 00:50:44;;;;;;;8.48;7.22;;;22.20;89.40;;;;;;5072882;28;20483;-30
2023/08/19 00:53:12;;;;;;;7.97;6.97;;;21.30;88.60;;;;;;5066134;28;20630;-30
2023/08/19 00:55:40;;;;;;;9.05;6.80;;;;;;;;;;5052545;28;20136;-35
2023/08/19 00:58:07;;;;;;;8.05;6.97;;;22.20;80.10;;;;;;5052630;28;20517;-31
2023/08/19 01:00:35;;;;;;;7.65;6.70;;;;;;;;;;5052539;28;20453;-31
2023/08/19 01:03:04;;;;;;;7.57;6.82;;;;;;;;;;5052554;28;20049;-31
2023/08/19 01:05:37;;;;;;;8.35;6.53;;;22.20;89.00;;;;;;5052046;28;20076;-31
2023/08/19 01:08:04;;;;;;;7.40;6.65;;;21.80;73.90;;;;;;5052470;28;20143;-33
2023/08/19 01:10:33;;;;;;;7.35;6.47;;;22.40;89.20;;;;;;5070918;28;20123;-31
2023/08/19 01:13:04;;;;;;;7.25;6.25;;;23.10;73.40;;;;;;5072192;28;20136;-35
2023/08/19 01:15:33;;;;;;;7.78;6.85;;;22.70;75.50;;;;;;5072476;28;20045;-31
2023/08/19 01:18:01;;;;;;;7.72;6.55;;;;;;;;;;5072384;28;20128;-34
2023/08/19 01:20:31;;;;;;;7.22;6.53;;;;;;;;;;5072215;28;20102;-31
2023/08/19 01:23:01;;;;;;;8.52;7.05;;;22.20;72.90;;;;;;5070498;28;20090;-30
2023/08/19 01:25:29;;;;;;;7.30;6.60;;;22.50;89.20;;;;;;5071745;28;20083;-30
2023/08/19 01:27:55;;;;;;;6.55;5.85;;;22.30;89.70;;;;;;5072125;28;20131;-32
2023/08/19 01:30:23;;;;;;;7.47;6.57;;;22.20;87.00;;;;;;5072225;28;20136;-32
2023/08/19 01:32:50;;;;;;;7.15;6.45;;;22.40;89.40;;;;;;5071849;28;20516;-31
2023/08/19 01:35:17;;;;;;;7.57;6.70;;;;;;;;;;5072255;28;20131;-36
2023/08/19 01:37:48;;;;;;;6.80;6.20;;;21.80;89.60;;;;;;5071386;28;20128;-31
2023/08/19 01:40:15;;;;;;;8.40;6.75;;;;;;;;;;5071225;28;20127;-34
2023/08/19 01:42:42;;;;;;;7.65;6.57;;;22.20;72.80;;;;;;5071679;28;20538;-33
2023/08/19 01:45:09;;;;;;;7.43;6.32;;;22.20;72.80;;;;;;5071799;28;20053;-34
2023/08/19 01:47:37;;;;;;;7.90;6.75;;;22.60;89.20;;;;;;5071885;28;20132;-30
2023/08/19 01:50:05;;;;;;;6.88;6.28;;;23.00;90.00;;;;;;5062347;28;20124;-36
2023/08/19 01:52:32;;;;;;;7.50;6.43;;;;;;;;;;5050751;28;20406;-40
2023/08/19 01:54:59;;;;;;;7.20;6.30;;;21.30;89.40;;;;;;5051761;28;20124;-39
2023/08/19 01:57:27;;;;;;;7.05;6.35;;;22.10;79.50;;;;;;5051783;28;20128;-36
2023/08/19 01:59:55;;;;;;;6.57;5.93;;;22.20;72.80;;;;;;5051779;28;20056;-35
2023/08/19 02:02:22;;;;;;;7.57;6.72;;;21.90;88.80;;;;;;5051149;28;20095;-40
2023/08/19 02:04:49;;;;;;;7.25;6.38;;;22.30;89.90;;;;;;5055624;28;20055;-39
2023/08/19 02:07:16;;;;;;;6.75;6.05;;;;;;;;;;5066834;28;20072;-34
2023/08/19 02:09:43;;;;;;;6.60;6.00;;;22.10;88.80;;;;;;5057814;28;20120;-36
2023/08/19 02:12:09;;;;;;;8.35;6.60;;;21.90;88.80;;;;;;5051313;28;20128;-40
2023/08/19 02:14:36;;;;;;;8.05;6.47;;;22.50;79.80;;;;;;5051377;28;20124;-37
2023/08/19 02:17:04;;;;;;;7.25;6.30;;;22.40;89.80;;;;;;5051489;28;20131;-39
2023/08/19 02:19:31;;;;;;;7.22;6.53;;;22.50;89.90;;;;;;5051784;28;20049;-36
2023/08/19 02:21:58;;;;;;;6.75;6.10;;;22.50;89.40;;;;;;5069282;28;20726;-38
2023/08/19 02:24:25;;;;;;;7.13;6.43;;;22.00;79.20;;;;;;5071423;28;20127;-35
2023/08/19 02:26:52;;;;;;;8.07;6.85;;;;;;;;;;5071199;28;20052;-39
2023/08/19 02:29:18;;;;;;;7.30;6.60;;;22.40;79.80;;;;;;5071379;28;20132;-34
2023/08/19 02:31:45;;;;;;;7.03;6.38;;;22.50;89.10;;;;;;5071396;28;20583;-36
2023/08/19 02:34:13;;;;;;;7.35;6.65;;;22.40;89.10;;;;;;5071320;28;20131;-37
2023/08/19 02:36:40;;;;;;;7.50;6.47;;;21.90;89.10;;;;;;5070374;28;20123;-39
2023/08/19 02:39:07;;;;;;;6.78;6.18;;;;;;;;;;5071181;28;20132;-34
2023/08/19 02:41:34;;;;;;;6.95;6.25;;;;;;;;;;5071162;28;20131;-35
2023/08/19 02:44:01;;;;;;;6.95;5.80;;;;;;;;;;5071279;28;20132;-37
2023/08/19 02:46:28;;;;;;;7.90;6.15;;;;;;;;;;5071321;28;20143;-36
2023/08/19 02:48:55;;;;;;;6.63;6.03;;;;;;;;;;5071269;28;20586;-35
2023/08/19 02:51:23;;;;;;;7.18;6.47;;;22.10;89.60;;;;;;5070895;28;20560;-31
2023/08/19 02:53:50;;;;;;;7.10;6.18;;;;;;;;;;5058678;28;20132;-40
2023/08/19 02:56:17;;;;;;;6.97;6.38;;;;;;;;;;5051078;28;20136;-35
2023/08/19 02:58:44;;;;;;;6.72;6.13;;;23.20;89.40;;;;;;5051343;28;20132;-38
2023/08/19 03:01:13;;;;;;;7.15;6.45;;;22.10;88.70;;;;;;5050789;28;20561;-38
2023/08/19 03:03:40;;;;;;;6.68;6.07;;;;;;;;;;5051945;28;20045;-35
2023/08/19 03:06:06;;;;;;;6.78;6.13;;;22.00;88.70;;;;;;5054757;28;20148;-37
2023/08/19 03:08:34;;;;;;;7.63;6.47;;;21.90;88.70;;;;;;5054903;28;20124;-38
2023/08/19 03:11:01;;;;;;;7.45;6.32;;;21.20;88.70;;;;;;5055636;28;20119;-39
2023/08/19 03:13:29;;;;;;;6.63;6.00;;;21.30;84.10;;;;;;5054358;28;20417;-36
2023/08/19 03:15:58;;;;;;;7.85;6.50;;;22.20;83.30;;;;;;5054875;28;20105;-40
2023/08/19 03:18:25;;;;;;;6.95;6.25;;;21.40;79.80;;;;;;5074209;28;20140;-35
2023/08/19 03:20:56;;;;;;;6.68;5.97;;;21.90;88.60;;;;;;5074521;28;20094;-34
2023/08/19 03:23:24;;;;;;;6.88;6.18;;;22.20;88.80;;;;;;5074354;28;20557;-37
2023/08/19 03:25:52;;;;;;;6.47;5.88;;;21.60;88.70;;;;;;5072460;28;20475;-39
2023/08/19 03:28:19;;;;;;;6.72;6.13;;;21.80;88.90;;;;;;5054372;28;20127;-37
2023/08/19 03:30:45;;;;;;;6.90;6.20;;;22.00;88.70;;;;;;5054482;28;20127;-35
2023/08/19 03:33:12;;;;;;;6.70;6.00;;;;;;;;;;5053861;28;20561;-34
2023/08/19 03:35:39;;;;;;;8.38;6.35;;;22.30;89.50;;;;;;5054227;28;20049;-35
2023/08/19 03:38:06;;;;;;;6.57;5.97;;;22.30;88.80;;;;;;5072857;28;20131;-37
2023/08/19 03:40:33;;;;;;;6.90;6.20;;;;;;;;;;5073808;28;20140;-35
2023/08/19 03:43:01;;;;;;;6.45;5.85;;;22.00;88.60;;;;;;5066068;28;20502;-38
2023/08/19 03:45:28;;;;;;;5.82;5.22;;;21.80;81.20;;;;;;5067816;28;20076;-36
2023/08/19 03:47:54;;;;;;;6.28;5.63;;;22.30;88.80;;;;;;5074183;28;20652;-36
2023/08/19 03:50:21;;;;;;;7.03;6.32;;;22.80;79.20;;;;;;5073865;28;20135;-38
2023/08/19 03:52:48;;;;;;;6.32;5.72;;;22.60;88.80;;;;;;5073802;28;20625;-37
2023/08/19 03:55:14;;;;;;;6.57;5.97;;;21.90;88.50;;;;;;5074214;28;20127;-37
2023/08/19 03:57:41;;;;;;;6.78;6.15;;;;;;;;;;5073965;28;20123;-36
2023/08/19 04:00:11;;;;;;;6.15;5.55;;;22.60;89.00;;;;;;5058821;28;20128;-36
2023/08/19 04:02:38;;;;;;;6.43;5.82;;;21.80;88.50;;;;;;5053413;28;20127;-36
2023/08/19 04:05:06;;;;;;;6.57;5.93;;;21.80;88.40;;;;;;5053595;28;20577;-37
2023/08/19 04:07:32;;;;;;;6.47;5.88;;;22.20;88.70;;;;;;5053866;28;20107;-40
2023/08/19 04:09:59;;;;;;;6.53;5.93;;;22.00;88.60;;;;;;5053857;28;20131;-37
2023/08/19 04:12:26;;;;;;;6.63;5.93;;;21.60;77.40;;;;;;5054719;28;20132;-34
2023/08/19 04:14:53;;;;;;;6.15;5.55;;;21.20;78.30;;;;;;5071430;28;20568;-36
2023/08/19 04:17:21;;;;;;;6.45;5.82;;;22.10;72.30;;;;;;5060928;28;20053;-34
2023/08/19 04:19:48;;;;;;;6.75;6.07;;;;;;;;;;5053500;28;20080;-35
2023/08/19 04:22:15;;;;;;;7.13;6.07;;;22.50;78.20;;;;;;5053496;28;20084;-38
2023/08/19 04:24:42;;;;;;;6.70;6.03;;;;;;;;;;5053293;28;20127;-35
2023/08/19 04:27:09;;;;;;;7.20;6.50;;;21.60;88.30;;;;;;5053523;28;20132;-38
2023/08/19 04:29:35;;;;;;;6.07;5.47;;;21.30;79.10;;;;;;5053324;28;20558;-37
2023/08/19 04:32:02;;;;;;;6.57;5.90;;;22.10;78.50;;;;;;5054304;28;20127;-37
2023/08/19 04:34:30;;;;;;;6.53;5.93;;;22.30;89.50;;;;;;5053186;28;20128;-36
2023/08/19 04:36:57;;;;;;;6.63;5.93;;;22.10;88.70;;;;;;5062063;28;20120;-35
2023/08/19 04:39:24;;;;;;;6.15;5.55;;;21.90;88.60;;;;;;5073289;28;20131;-38
2023/08/19 04:41:51;;;;;;;6.72;5.65;;;22.00;88.90;;;;;;5073096;28;20132;-35
2023/08/19 04:44:18;;;;;;;5.90;5.30;;;21.30;88.20;;;;;;5072828;28;20083;-31
2023/08/19 04:46:45;;;;;;;6.63;6.03;;;;;;;;;;5072897;28;20140;-35
2023/08/19 04:49:11;;;;;;;5.90;5.30;;;22.60;89.10;;;;;;5055978;28;20055;-30
2023/08/19 04:51:39;;;;;;;6.63;6.03;;;22.30;88.70;;;;;;5052788;28;20132;-30
2023/08/19 04:54:07;;;;;;;6.32;5.78;;;22.20;89.00;;;;;;5052906;28;20141;-31
2023/08/19 04:56:34;;;;;;;7.10;5.43;;;21.80;89.10;;;;;;5054947;28;20068;-31
2023/08/19 04:59:00;;;;;;;6.65;5.95;;;22.30;88.70;;;;;;5072908;28;20045;-31
2023/08/19 05:01:27;;;;;;;6.20;5.60;;;22.40;82.90;;;;;;5072814;28;20055;-32
2023/08/19 05:03:54;;;;;;;6.85;6.18;;;21.60;88.40;;;;;;5068612;28;20558;-32
2023/08/19 05:06:21;;;;;;;6.70;5.53;;;22.30;88.60;;;;;;5052627;28;20129;-31
2023/08/19 05:08:49;;;;;;;6.30;5.70;;;22.60;74.50;;;;;;5054797;28;20128;-32
2023/08/19 05:11:15;;;;;;;5.82;5.25;;;22.00;80.80;;;;;;5072462;28;20557;-32
2023/08/19 05:13:43;;;;;;;6.70;6.10;;;22.60;88.90;;;;;;5072269;28;20132;-30
2023/08/19 05:16:10;;;;;;;6.35;5.75;;;;;;;;;;5072111;28;20056;-32
2023/08/19 05:18:36;;;;;;;6.50;5.90;;;22.10;88.90;;;;;;5072570;28;20131;-30
2023/08/19 05:21:03;;;;;;;6.93;5.55;;;22.40;88.80;;;;;;5061947;28;20647;-32
2023/08/19 05:23:30;;;;;;;6.18;5.57;;;22.10;84.90;;;;;;5061047;28;20463;-31
2023/08/19 05:25:58;;;;;;;6.47;5.88;;;21.80;88.70;;;;;;5058533;28;20159;-30
2023/08/19 05:28:25;;;;;;;7.15;6.07;;;;;;;;;;5051534;28;20076;-31
2023/08/19 05:30:53;;;;;;;6.07;5.57;;;;;;;;;;5052116;28;20059;-31
2023/08/19 05:33:19;;;;;;;6.32;5.68;;;21.90;87.40;;;;;;5052073;28;20128;-30
2023/08/19 05:35:46;;;;;;;6.70;6.10;;;;;;;;;;5052084;28;20131;-32
2023/08/19 05:38:13;;;;;;;6.20;5.60;;;22.50;88.80;;;;;;5064001;28;20170;-30
2023/08/19 05:40:40;;;;;;;6.22;5.63;;;;;;;;;;5054420;28;20135;-30
2023/08/19 05:43:08;;;;;;;8.63;5.80;;;22.10;72.30;;;;;;5062382;28;20135;-31
2023/08/19 05:45:35;;;;;;;6.15;5.55;;;21.80;88.70;;;;;;5069703;28;20045;-31
2023/08/19 05:48:02;;;;;;;5.95;5.45;;;21.50;89.10;;;;;;5071932;28;20135;-31
2023/08/19 05:50:29;;;;;;;6.18;5.60;;;23.10;89.10;;;;;;5063116;28;20410;-31
2023/08/19 05:52:56;;;;;;;6.78;5.85;;;22.60;89.60;;;;;;5062493;28;20151;-31
2023/08/19 05:55:23;;;;;;;6.15;5.55;;;;;;;;;;5061227;28;20561;-35
2023/08/19 05:57:50;;;;;;;6.05;5.50;;;;;;;;;;5062213;28;20119;-32
2023/08/19 06:00:18;;;;;;;6.45;5.85;;;22.10;72.20;;;;;;5051959;28;20132;-34
2023/08/19 06:02:45;;;;;;;6.15;5.55;;;;;;;;;;5051653;28;20098;-34
2023/08/19 06:05:12;;;;;;;6.10;5.55;;;22.60;86.80;;;;;;5055276;28;20056;-32
2023/08/19 06:07:38;;;;;;;5.93;5.43;;;21.90;88.50;;;;;;5071796;28;20135;-30
2023/08/19 06:10:06;;;;;;;6.53;5.88;;;22.70;77.40;;;;;;5064400;28;20140;-31
2023/08/19 06:12:33;;;;;;;6.25;5.65;;;;;;;;;;5063698;28;20106;-32
2023/08/19 06:15:00;;;;;;;8.20;5.70;;;22.00;81.60;;;;;;5067254;28;20125;-32
2023/08/19 06:17:28;;;;;;;6.10;5.57;;;22.60;89.10;;;;;;5051668;28;20140;-33
2023/08/19 06:19:55;;;;;;;6.30;5.32;;;23.20;89.20;;;;;;5051468;28;20136;-31
2023/08/19 06:22:22;;;;;;;6.15;5.57;;;21.90;82.10;;;;;;5051333;28;20045;-32
2023/08/19 06:24:48;;;;;;;6.35;5.63;;;21.90;88.40;;;;;;5050124;28;20529;-31
2023/08/19 06:27:15;;;;;;;6.68;5.18;;;22.30;89.00;;;;;;5062759;28;20131;-31
2023/08/19 06:29:42;;;;;;;6.35;5.32;;;;;;;;;;5071079;28;20549;-33
2023/08/19 06:32:11;;;;;;;5.88;5.38;;;22.20;72.20;;;;;;5070967;28;20482;-30
2023/08/19 06:34:40;;;;;;;6.00;5.40;;;21.90;88.20;;;;;;5071357;28;20611;-31
2023/08/19 06:37:07;;;;;;;6.43;5.82;;;22.10;88.70;;;;;;5063831;28;20048;-31
2023/08/19 06:39:34;;;;;;;7.15;5.50;;;22.20;88.40;;;;;;5072012;28;20132;-31
2023/08/19 06:42:02;;;;;;;6.20;5.60;;;18.80;70.40;;;;;;5075584;28;20057;-30
2023/08/19 06:44:30;;;;;;;5.72;5.18;;;;;;;;;;5061618;28;20168;-31
2023/08/19 06:46:57;;;;;;;6.10;5.35;;;22.30;81.70;;;;;;5074458;28;20044;-31
2023/08/19 06:49:24;;;;;;;7.30;6.00;;;22.20;88.80;;;;;;5075542;28;20135;-30
2023/08/19 06:51:53;;;;;;;7.10;5.32;;;21.90;88.60;;;;;;5075141;28;20132;-31
2023/08/19 06:54:20;;;;;;;6.25;5.53;;;22.10;88.60;;;;;;5071278;28;20549;-30
2023/08/19 06:56:49;;;;;;;6.05;5.45;;;22.50;87.90;;;;;;5063431;28;20064;-31
2023/08/19 06:59:19;;;;;;;7.13;5.13;;;22.50;88.60;;;;;;5055959;28;20131;-31
2023/08/19 07:01:49;;;;;;;6.32;5.38;;;22.20;72.30;;;;;;5060944;28;20076;-33
2023/08/19 07:04:16;;;;;;;7.15;5.50;;;22.10;88.80;;;;;;5058089;28;21979;-31
2023/08/19 07:06:42;;;;;;;6.18;5.50;;;22.60;89.70;;;;;;5066604;28;20131;-31
2023/08/19 07:09:11;;;;;;;6.85;5.72;;;22.90;77.80;;;;;;5075004;28;20127;-32
2023/08/19 07:11:38;;;;;;;7.47;5.70;;;;;;;;;;5074758;28;20044;-32
2023/08/19 07:14:06;;;;;;;6.72;5.70;;;22.20;72.60;;;;;;5074610;28;20131;-34
2023/08/19 07:16:33;;;;;;;6.78;5.45;;;22.60;89.40;;;;;;5060535;28;20128;-31
2023/08/19 07:19:00;;;;;;;6.70;5.13;;;;;;;;;;5054608;28;20072;-32
2023/08/19 07:21:27;;;;;;;6.20;5.60;;;;;;;;;;5054298;28;20145;-35
2023/08/19 07:23:57;;;;;;;7.78;5.70;;;22.00;89.10;;;;;;5059445;28;20040;-32
2023/08/19 07:26:26;;;;;;;6.70;5.78;;;22.70;76.00;;;;;;5072142;28;20127;-33
2023/08/19 07:28:53;;;;;;;6.43;5.20;;;22.40;72.80;;;;;;5069468;28;20044;-30
2023/08/19 07:31:21;;;;;;;6.35;5.70;;;22.20;78.80;;;;;;5061404;28;20123;-32
2023/08/19 07:33:48;;;;;;;5.75;5.15;;;;;;;;;;5065249;28;20044;-37
2023/08/19 07:36:14;;;;;;;6.20;5.60;;;22.10;78.90;;;;;;5056945;28;20048;-32
2023/08/19 07:38:41;;;;;;;6.60;5.68;;;22.00;88.80;;;;;;5060213;28;20171;-31
2023/08/19 07:41:08;;;;;;;8.00;5.88;;;;;;;;;;5061320;28;20127;-32
2023/08/19 07:43:36;;;;;;;7.38;5.38;;;22.30;74.20;;;;;;5056594;28;20127;-34
2023/08/19 07:46:03;;;;;;;9.32;6.00;;;22.70;81.90;;;;;;5057259;28;20114;-31
2023/08/19 07:48:31;;;;;;;6.03;5.32;;;22.20;89.80;;;;;;5056842;28;20053;-30
2023/08/19 07:50:58;;;;;;;6.43;5.32;;;;;;;;;;5062813;28;20543;-34
2023/08/19 07:53:25;;;;;;;7.47;5.65;;;22.20;89.90;;;;;;5065600;28;20059;-31
2023/08/19 07:55:52;;;;;;;7.60;5.55;;;22.50;77.90;;;;;;5062832;28;20078;-30
2023/08/19 07:58:19;;;;;;;6.63;5.35;;;;;;;;;;5064412;28;20072;-39
2023/08/19 08:00:47;;;;;;;8.27;5.75;;;22.40;73.10;;;;;;5063607;28;20095;-34
2023/08/19 08:03:14;;;;;;;7.95;5.60;;;21.70;89.70;;;;;;5071354;28;20048;-30
2023/08/19 08:05:41;;;;;;;9.70;5.28;;;21.80;79.10;;;;;;5063471;28;20131;-33
2023/08/19 08:08:08;;;;;;;7.20;5.70;;;22.60;89.40;;;;;;5059733;28;20554;-31
2023/08/19 08:10:34;;;;;;;9.95;5.82;;;22.80;80.30;;;;;;5060075;28;20137;-31
2023/08/19 08:13:01;;;;;;;12.52;5.85;;;23.40;80.70;;;;;;5054971;28;20048;-33
2023/08/19 08:15:28;;;;;;;7.63;5.63;;;22.90;89.40;;;;;;5063923;28;20131;-30
2023/08/19 08:17:56;;;;;;;8.93;5.22;;;22.40;73.00;;;;;;5058775;28;20719;-30
2023/08/19 08:20:23;;;;;;;9.40;5.20;;;;;;;;;;5065957;28;20048;-37
2023/08/19 08:22:50;;;;;;;9.90;5.20;;;;;;;;;;5061905;28;20123;-33
2023/08/19 08:25:17;;;;;;;10.52;5.70;;;;;;;;;;5071803;28;20127;-31
2023/08/19 08:27:45;;;;;;;6.95;5.22;;;;;;;;;;5072003;28;20151;-33
2023/08/19 08:30:12;;;;;;;7.38;6.07;;;23.10;89.60;;;;;;5071956;28;20395;-31
2023/08/19 08:32:39;;;;;;;8.57;5.15;;;22.50;89.10;;;;;;5071735;28;20148;-31
2023/08/19 08:35:08;;;;;;;7.32;5.18;;;22.30;73.20;;;;;;5071848;28;20044;-34
2023/08/19 08:37:34;;;;;;;10.70;5.47;;;22.80;89.20;;;;;;5066175;28;20135;-31
2023/08/19 08:40:01;;;;;;;10.75;5.55;;;22.70;87.10;;;;;;5053126;28;20053;-30
2023/08/19 08:42:28;;;;;;;6.07;4.97;;;22.10;78.90;;;;;;5052983;28;20076;-32
2023/08/19 08:44:55;;;;;;;6.00;5.20;;;;;;;;;;5062292;28;20127;-31
2023/08/19 08:47:22;;;;;;;10.13;5.40;;;;;;;;;;5072733;28;20136;-34
2023/08/19 08:49:49;;;;;;;8.82;5.35;;;22.40;89.30;;;;;;5072892;28;20131;-30
2023/08/19 08:52:17;;;;;;;7.65;5.07;;;22.20;88.80;;;;;;5072619;28;20127;-31
2023/08/19 08:54:43;;;;;;;6.55;5.25;;;22.70;89.40;;;;;;5080232;28;20127;-31
2023/08/19 08:57:12;;;;;;;8.55;5.25;;;21.60;76.80;;;;;;5093048;28;20489;-31
2023/08/19 08:59:39;;;;;;;8.15;5.25;;;21.90;89.40;;;;;;5093244;28;20048;-31
2023/08/19 09:02:06;;;;;;;9.35;5.57;;;22.80;77.50;;;;;;5079892;28;20163;-37
2023/08/19 09:04:32;;;;;;;7.18;5.60;;;21.60;73.00;;;;;;5052442;28;20128;-36
2023/08/19 09:07:04;;;;;;;7.60;5.00;;;22.50;72.90;;;;;;5065031;28;20132;-35
2023/08/19 09:09:32;;;;;;;6.97;4.75;;;22.50;72.90;;;;;;5070977;28;20482;-33
2023/08/19 09:11:59;;;;;;;9.23;5.20;;;23.10;89.50;;;;;;5072336;28;20132;-36
2023/08/19 09:14:29;;;;;;;8.32;5.30;;;22.00;88.80;;;;;;5072385;28;20136;-36
2023/08/19 09:16:55;;;;;;;11.32;5.07;;;21.40;88.40;;;;;;5072546;28;20135;-35
2023/08/19 09:19:22;;;;;;;7.57;5.00;;;23.70;89.20;;;;;;5071878;28;20127;-36
2023/08/19 09:21:49;;;;;;;9.02;4.95;;;;;;;;;;5051881;28;20127;-39
2023/08/19 09:24:16;;;;;;;7.35;5.07;;;22.50;88.70;;;;;;5052308;28;20136;-39
2023/08/19 09:26:45;;;;;;;5.78;4.80;;;23.00;75.40;;;;;;5052444;28;20056;-31
2023/08/19 09:29:12;;;;;;;5.57;4.57;;;21.80;86.70;;;;;;5052272;28;20546;-33
2023/08/19 09:31:39;;;;;;;5.95;4.80;;;22.40;88.50;;;;;;5052168;28;20577;-30
2023/08/19 09:34:06;;;;;;;6.82;4.88;;;;;;;;;;5051954;28;20041;-31
2023/08/19 09:36:33;;;;;;;5.90;4.47;;;22.70;88.80;;;;;;5052496;28;20562;-31
2023/08/19 09:39:00;;;;;;;8.25;4.90;;;22.70;85.10;;;;;;5052243;28;20133;-31
2023/08/19 09:41:27;;;;;;;6.40;5.15;;;23.60;89.70;;;;;;5051823;28;20569;-31
2023/08/19 09:43:56;;;;;;;6.93;5.03;;;22.60;82.50;;;;;;5052643;28;20049;-34
2023/08/19 09:46:30;;;;;;;7.60;4.55;;;23.80;89.00;;;;;;5072083;28;20094;-31
2023/08/19 09:48:57;;;;;;;6.85;4.95;;;22.90;88.80;;;;;;5071913;28;20401;-31
2023/08/19 09:51:25;;;;;;;6.25;4.85;;;22.90;77.30;;;;;;5071894;28;20110;-31
2023/08/19 09:53:51;;;;;;;8.55;5.35;;;23.10;88.60;;;;;;5072061;28;20464;-31
2023/08/19 09:56:21;;;;;;;7.15;4.53;;;22.70;74.30;;;;;;5071867;28;20098;-32
2023/08/19 09:58:50;;;;;;;7.00;4.72;;;22.60;72.80;;;;;;5071735;28;20421;-34
2023/08/19 10:01:20;;;;;;;5.38;4.28;;;22.30;88.00;;;;;;5071832;28;20517;-30
2023/08/19 10:03:48;;;;;;;7.40;4.63;;;22.40;83.10;;;;;;5071766;28;20051;-33
2023/08/19 10:06:15;;;;;;;6.25;4.68;;;24.10;73.10;;;;;;5072094;28;20079;-33
2023/08/19 10:08:44;;;;;;;6.20;4.38;;;22.80;89.20;;;;;;5071875;28;20136;-32
2023/08/19 10:11:11;;;;;;;6.20;4.40;;;;;;;;;;5071946;28;20040;-35
2023/08/19 10:13:37;;;;;;;6.90;4.45;;;23.30;88.90;;;;;;5070904;28;20600;-32
2023/08/19 10:16:05;;;;;;;7.35;5.03;;;22.70;82.00;;;;;;5071796;28;20143;-32
2023/08/19 10:18:35;;;;;;;5.35;4.63;;;22.10;88.80;;;;;;5071901;28;20127;-31
2023/08/19 10:21:05;;;;;;;7.80;4.90;;;22.20;88.10;;;;;;5071938;28;20474;-33
2023/08/19 10:23:31;;;;;;;5.43;4.28;;;23.00;88.30;;;;;;5071525;28;20083;-38
2023/08/19 10:25:58;;;;;;;5.40;4.47;;;22.00;88.70;;;;;;5071543;28;20127;-40
2023/08/19 10:28:27;;;;;;;4.63;4.18;;;22.70;72.20;;;;;;5071447;28;20474;-34
2023/08/19 10:31:09;;;;;;;4.25;3.85;;;22.70;72.20;;;;;;5071855;28;20056;-38
2023/08/19 10:33:42;;;;;;;4.38;3.95;;;23.60;89.40;;;;;;5071393;28;20052;-40
2023/08/19 10:36:09;;;;;;;5.90;4.50;;;;;;;;;;5071224;28;20444;-34
2023/08/19 10:38:46;;;;;;;6.22;4.25;;;22.50;87.80;;;;;;5071468;28;20398;-37
2023/08/19 10:41:25;;;;;;;5.30;4.10;;;22.30;81.80;;;;;;5071160;28;20063;-38
2023/08/19 10:43:55;;;;;;;5.13;4.20;;;22.50;81.00;;;;;;5071308;28;20135;-33
2023/08/19 10:46:30;;;;;;;5.75;4.22;;;22.80;87.80;;;;;;5068642;28;20053;-31
2023/08/19 10:48:58;;;;;;;5.47;4.10;;;22.90;88.30;;;;;;5067982;28;20135;-31
2023/08/19 10:51:53;;;;;;;4.90;4.35;;;22.60;88.50;;;;;;5071273;28;20128;-30
2023/08/19 10:54:31;;;;;;;6.97;4.10;;;22.80;71.90;;;;;;5071270;28;20052;-35
2023/08/19 10:57:11;;;;;;;4.70;4.25;;;22.80;71.90;;;;;;5071713;28;20057;-34
2023/08/19 10:59:38;;;;;;;7.05;4.35;;;23.00;87.90;;;;;;5071078;28;20072;-31
2023/08/19 11:02:05;;;;;;;5.32;4.18;;;22.50;88.40;;;;;;5071274;28;20119;-32
2023/08/19 11:04:33;;;;;;;4.10;3.70;;;22.90;71.80;;;;;;5071257;28;20063;-35
2023/08/19 11:07:02;;;;;;;5.18;3.80;;;;;;;;;;5071704;28;20465;-36
2023/08/19 11:09:29;;;;;;;4.47;3.58;;;23.50;87.80;;;;;;5071146;28;20045;-40
2023/08/19 11:11:56;;;;;;;7.05;4.18;;;23.00;87.70;;;;;;5071002;28;20136;-40
2023/08/19 11:14:23;;;;;;;5.60;3.88;;;22.80;80.40;;;;;;5070975;28;20056;-38
2023/08/19 11:16:50;;;;;;;5.20;3.50;;;;;;;;;;5071443;28;20135;-38
2023/08/19 11:19:17;;;;;;;4.15;3.75;;;22.60;74.60;;;;;;5071137;28;20135;-36
2023/08/19 11:21:45;;;;;;;5.63;3.97;;;22.60;87.40;;;;;;5071016;28;20131;-38
2023/08/19 11:24:12;;;;;;;4.97;4.35;;;22.70;87.50;;;;;;5071127;28;20131;-37
2023/08/19 11:26:39;;;;;;;5.28;4.15;;;;;;;;;;5074638;28;20047;-35
2023/08/19 11:29:06;;;;;;;6.05;3.80;;;23.00;87.60;;;;;;5074579;28;20132;-36
2023/08/19 11:31:33;;;;;;;4.55;3.90;;;;;;;;;;5074435;28;20080;-36
2023/08/19 11:34:00;;;;;;;5.85;3.67;;;23.60;88.00;;;;;;5074215;28;20044;-39
2023/08/19 11:36:27;;;;;;;4.50;3.80;;;;;;;;;;5073965;28;20124;-37
2023/08/19 11:38:56;;;;;;;4.18;3.63;;;22.90;71.80;;;;;;5074527;28;20127;-37
2023/08/19 11:41:23;;;;;;;5.82;4.00;;;22.10;87.20;;;;;;5074272;28;20132;-35
2023/08/19 11:43:53;;;;;;;6.18;3.72;;;22.90;80.00;;;;;;5073927;28;20131;-35
2023/08/19 11:46:20;;;;;;;4.97;3.97;;;;;;;;;;5074331;28;20045;-35
2023/08/19 11:48:47;;;;;;;5.10;4.05;;;;;;;;;;5074307;28;20796;-39
2023/08/19 11:51:14;;;;;;;5.60;3.90;;;21.80;81.00;;;;;;5074140;28;20128;-34
2023/08/19 11:53:41;;;;;;;4.38;3.85;;;22.20;88.30;;;;;;5073860;28;20091;-37
2023/08/19 11:56:09;;;;;;;5.30;4.13;;;22.90;87.70;;;;;;5074153;28;20544;-38
2023/08/19 11:58:47;;;;;;;4.40;3.75;;;22.70;88.40;;;;;;5074197;28;20497;-34
2023/08/19 12:01:14;;;;;;;4.82;3.72;;;;;;;;;;5074124;28;20080;-33
2023/08/19 12:03:42;;;;;;;4.30;3.90;;;23.10;88.00;;;;;;5074144;28;20128;-36
2023/08/19 12:06:09;;;;;;;5.18;3.97;;;;;;;;;;5073725;28;20132;-36
2023/08/19 12:08:38;;;;;;;5.22;3.75;;;22.80;79.40;;;;;;5074065;28;20051;-35
2023/08/19 12:11:05;;;;;;;4.28;3.70;;;23.00;83.10;;;;;;5074018;28;20075;-36
2023/08/19 12:13:33;;;;;;;3.97;3.55;;;22.80;72.00;;;;;;5073619;28;20135;-34
2023/08/19 12:16:00;;;;;;;5.93;4.18;;;22.60;88.20;;;;;;5074106;28;20144;-38
2023/08/19 12:18:27;;;;;;;4.55;3.78;;;23.00;86.30;;;;;;5073539;28;20131;-35
2023/08/19 12:20:54;;;;;;;5.07;3.85;;;22.50;88.20;;;;;;5073435;28;20140;-34
2023/08/19 12:23:21;;;;;;;4.07;3.60;;;;;;;;;;5073655;28;20127;-34
2023/08/19 12:25:51;;;;;;;4.65;3.67;;;23.10;88.90;;;;;;5073799;28;20056;-30
2023/08/19 12:28:18;;;;;;;4.57;4.07;;;22.40;87.80;;;;;;5073507;28;20557;-31
2023/08/19 12:30:46;;;;;;;4.57;3.72;;;22.80;72.00;;;;;;5073225;28;20045;-34
2023/08/19 12:33:13;;;;;;;3.60;3.30;;;22.80;72.00;;;;;;5073244;28;20143;-35
2023/08/19 12:35:41;;;;;;;3.63;3.33;;;;;;;;;;5073272;28;20135;-34
2023/08/19 12:38:08;;;;;;;4.07;3.53;;;22.50;87.80;;;;;;5072540;28;20075;-31
2023/08/19 12:40:35;;;;;;;4.60;3.70;;;;;;;;;;5072942;28;20476;-32
2023/08/19 12:43:02;;;;;;;4.70;3.58;;;;;;;;;;5073084;28;20127;-31
2023/08/19 12:45:29;;;;;;;3.75;3.40;;;;;;;;;;5073102;28;20128;-34
2023/08/19 12:47:57;;;;;;;4.00;3.60;;;22.40;88.50;;;;;;5073095;28;20123;-32
2023/08/19 12:50:24;;;;;;;4.00;3.38;;;22.70;88.60;;;;;;5073016;28;20116;-31
2023/08/19 12:52:52;;;;;;;3.67;3.30;;;22.90;88.30;;;;;;5072857;28;20081;-39
2023/08/19 12:55:19;;;;;;;4.60;3.58;;;22.60;88.20;;;;;;5072947;28;20076;-38
2023/08/19 12:57:46;;;;;;;5.07;3.78;;;22.70;76.50;;;;;;5071523;28;20409;-38
2023/08/19 13:00:14;;;;;;;3.92;3.40;;;22.80;72.00;;;;;;5072640;28;20052;-34
2023/08/19 13:02:41;;;;;;;3.42;3.13;;;22.40;87.70;;;;;;5071968;28;20123;-31
2023/08/19 13:05:09;;;;;;;4.05;3.50;;;22.60;87.70;;;;;;5072438;28;20131;-31
2023/08/19 13:07:36;;;;;;;3.97;3.47;;;;;;;;;;5072431;28;20132;-34
2023/08/19 13:10:03;;;;;;;3.58;3.28;;;23.00;86.90;;;;;;5072143;28;20131;-36
2023/08/19 13:12:29;;;;;;;3.75;3.42;;;22.60;87.70;;;;;;5071809;28;20181;-36